Oxberry, Mississippi
Current Conditions -  °F | °C
As of 2:35 PM on Friday 28 Nov 2014 (Local Time) from KGNF Reporting Station
Clear Clear  
Wind Chill: 57°   Ceiling: Unl
Heat Index: 57°   Visibility: 10mi
Dew Point: 27°   Wind: 7mph
Humidity: 31%   Direction: 170°S
Pressure: 30.25"   Gusts: NA
Location:  33.7549°N, 89.9608°W
Report Text: KGNF 282035Z AUTO 17006KT 10SM CLR 14/M03 A3025 RMK AO2
Loading
Personal Weather Stations






























Interactive Weather Map New forecast layout! Learn more

10-Day Weather Forecast

Advertisements
Track Severe Weather on mobile